createdAt,value
2023-01-11T00:01:07.562Z,8.27
2023-01-11T00:03:35.885Z,7.47
2023-01-11T00:06:04.868Z,7.50
2023-01-11T00:08:33.218Z,7.10
2023-01-11T00:11:03.034Z,7.13
2023-01-11T00:13:31.197Z,7.37
2023-01-11T00:16:05.994Z,8.20
2023-01-11T00:18:34.129Z,7.13
2023-01-11T00:21:05.425Z,7.00
2023-01-11T00:23:33.775Z,7.47
2023-01-11T00:26:05.322Z,7.23
2023-01-11T00:28:33.665Z,7.33
2023-01-11T00:31:02.971Z,8.10
2023-01-11T00:33:31.099Z,7.10
2023-01-11T00:35:59.217Z,7.90
2023-01-11T00:38:46.988Z,7.93
2023-01-11T00:41:34.534Z,8.03
2023-01-11T00:44:22.362Z,7.47
2023-01-11T00:47:08.734Z,8.13
2023-01-11T00:49:37.287Z,8.20
2023-01-11T00:52:08.986Z,8.53
2023-01-11T00:54:37.319Z,8.97
2023-01-11T00:57:07.501Z,9.00
2023-01-11T00:59:35.746Z,9.20
2023-01-11T01:02:04.303Z,8.70
2023-01-11T01:04:32.536Z,9.10
2023-01-11T01:07:00.796Z,9.47
2023-01-11T01:09:29.234Z,9.57
2023-01-11T01:11:57.305Z,10.30
2023-01-11T01:14:25.997Z,10.10
2023-01-11T01:16:54.376Z,9.87
2023-01-11T01:19:23.038Z,9.67
2023-01-11T01:21:51.679Z,10.07
2023-01-11T01:24:19.916Z,9.83
2023-01-11T01:26:48.109Z,10.17
2023-01-11T01:29:16.504Z,9.73
2023-01-11T01:31:46.076Z,9.80
2023-01-11T01:34:14.322Z,9.47
2023-01-11T01:36:42.833Z,9.23
2023-01-11T01:39:12.635Z,9.00
2023-01-11T01:41:41.005Z,8.97
2023-01-11T01:44:42.644Z,9.83
2023-01-11T01:47:12.597Z,9.43
2023-01-11T01:49:41.964Z,10.37
2023-01-11T01:52:11.014Z,9.90
2023-01-11T01:54:43.965Z,10.17
2023-01-11T01:57:17.645Z,9.77
2023-01-11T01:59:46.332Z,10.07
2023-01-11T02:02:15.805Z,10.40
2023-01-11T02:04:45.957Z,10.50
2023-01-11T02:07:17.511Z,10.40
2023-01-11T02:09:51.279Z,10.20
2023-01-11T02:12:19.948Z,10.93
2023-01-11T02:14:50.527Z,10.60
2023-01-11T02:17:20.054Z,10.73
2023-01-11T02:19:57.262Z,12.23
2023-01-11T02:22:49.289Z,11.53
2023-01-11T02:25:39.227Z,11.23
2023-01-11T02:28:15.031Z,10.87
2023-01-11T02:30:54.659Z,10.60
2023-01-11T02:33:31.479Z,11.03
2023-01-11T02:36:09.666Z,11.10
2023-01-11T02:38:44.145Z,11.70
2023-01-11T02:41:20.848Z,11.13
2023-01-11T02:44:14.956Z,11.40
2023-01-11T02:46:48.056Z,11.63
2023-01-11T02:49:25.223Z,11.70
2023-01-11T02:51:58.245Z,11.30
2023-01-11T02:54:26.385Z,11.23
2023-01-11T02:56:58.065Z,12.00
2023-01-11T02:59:33.272Z,11.53
2023-01-11T03:02:01.449Z,11.53
2023-01-11T03:04:31.707Z,12.37
2023-01-11T03:07:21.784Z,12.30
2023-01-11T03:10:03.151Z,11.83
2023-01-11T03:12:54.804Z,11.43
2023-01-11T03:16:04.694Z,11.43
2023-01-11T03:18:43.696Z,12.30
2023-01-11T03:21:36.729Z,12.73
2023-01-11T03:24:14.761Z,12.17
2023-01-11T03:26:53.686Z,13.03
2023-01-11T03:29:30.512Z,12.13
2023-01-11T03:32:10.269Z,12.80
2023-01-11T03:34:46.787Z,12.83
2023-01-11T03:37:21.606Z,12.70
2023-01-11T03:39:57.841Z,12.97
2023-01-11T03:42:28.574Z,12.83
2023-01-11T03:44:59.020Z,13.00
2023-01-11T03:47:29.623Z,13.37
2023-01-11T03:50:04.071Z,12.10
2023-01-11T03:52:35.497Z,12.40
2023-01-11T03:55:06.940Z,11.57
2023-01-11T03:57:38.766Z,12.20
2023-01-11T04:00:09.758Z,11.60
2023-01-11T04:02:41.512Z,11.33
2023-01-11T04:05:12.440Z,11.70
2023-01-11T04:07:40.550Z,11.07
2023-01-11T04:10:09.965Z,10.97
2023-01-11T04:12:37.984Z,10.97
2023-01-11T04:15:06.899Z,10.27
2023-01-11T04:17:34.927Z,10.70
2023-01-11T04:20:03.128Z,12.03
2023-01-11T04:22:32.556Z,10.70
2023-01-11T04:25:00.641Z,11.30
2023-01-11T04:27:28.743Z,11.27
2023-01-11T04:29:56.817Z,10.47
2023-01-11T04:32:25.556Z,10.50
2023-01-11T04:34:53.572Z,12.30
2023-01-11T04:37:21.638Z,11.10
2023-01-11T04:39:51.073Z,10.90
2023-01-11T04:42:21.300Z,10.37
2023-01-11T04:44:51.221Z,10.47
2023-01-11T04:47:20.772Z,10.77
2023-01-11T04:49:49.080Z,10.00
2023-01-11T04:52:19.823Z,10.30
2023-01-11T04:54:48.763Z,10.00
2023-01-11T04:57:18.406Z,10.20
2023-01-11T04:59:47.328Z,9.50
2023-01-11T05:02:15.713Z,10.33
2023-01-11T05:04:43.927Z,9.27
2023-01-11T05:07:12.178Z,9.17
2023-01-11T05:09:40.777Z,9.20
2023-01-11T05:12:08.885Z,8.73
2023-01-11T05:14:38.283Z,8.57
2023-01-11T05:17:06.358Z,10.70
2023-01-11T05:19:34.406Z,9.30
2023-01-11T05:22:02.397Z,8.60
2023-01-11T05:24:30.419Z,8.30
2023-01-11T05:26:58.836Z,8.30
2023-01-11T05:29:26.995Z,8.67
2023-01-11T05:31:56.420Z,8.10
2023-01-11T05:34:24.467Z,8.10
2023-01-11T05:36:52.508Z,8.00
2023-01-11T05:39:22.968Z,8.33
2023-01-11T05:41:51.099Z,8.70
2023-01-11T05:44:37.163Z,8.63
2023-01-11T05:47:06.634Z,8.67
2023-01-11T05:49:34.730Z,9.33
2023-01-11T05:52:02.780Z,9.07
2023-01-11T05:54:30.814Z,9.00
2023-01-11T05:56:58.917Z,9.33
2023-01-11T05:59:27.047Z,10.27
2023-01-11T06:01:55.176Z,10.50
2023-01-11T06:04:24.753Z,11.03
2023-01-11T06:06:52.864Z,10.80
2023-01-11T06:09:21.005Z,10.83
2023-01-11T06:11:50.532Z,11.37
2023-01-11T06:14:18.620Z,12.00
2023-01-11T06:16:46.779Z,11.90
2023-01-11T06:19:14.915Z,11.13
2023-01-11T06:21:44.355Z,12.17
2023-01-11T06:24:12.486Z,11.50
2023-01-11T06:26:40.556Z,10.77
2023-01-11T06:29:08.605Z,11.60
2023-01-11T06:31:36.710Z,10.47
2023-01-11T06:34:04.895Z,11.17
2023-01-11T06:36:32.964Z,10.60
2023-01-11T06:39:03.632Z,10.77
2023-01-11T06:41:31.665Z,10.90
2023-01-11T06:43:59.684Z,11.23
2023-01-11T06:46:29.205Z,11.77
2023-01-11T06:48:58.554Z,11.37
2023-01-11T06:51:27.283Z,12.23
2023-01-11T06:53:55.454Z,12.67
2023-01-11T06:56:24.965Z,11.97
2023-01-11T06:58:53.256Z,11.53
2023-01-11T07:01:21.568Z,12.57
2023-01-11T07:03:49.703Z,12.50
2023-01-11T07:06:17.908Z,13.17
2023-01-11T07:08:45.938Z,12.87
2023-01-11T07:11:14.075Z,15.13
2023-01-11T07:13:43.494Z,12.90
2023-01-11T07:16:11.654Z,14.87
2023-01-11T07:18:39.750Z,14.47
2023-01-11T07:21:07.850Z,14.87
2023-01-11T07:23:35.922Z,16.50
2023-01-11T07:26:04.169Z,16.73
2023-01-11T07:28:32.293Z,16.33
2023-01-11T07:31:01.837Z,17.23
2023-01-11T07:33:29.917Z,16.03
2023-01-11T07:36:00.615Z,16.27
2023-01-11T07:38:29.314Z,16.10
2023-01-11T07:40:57.375Z,15.47
2023-01-11T07:43:24.463Z,16.37
2023-01-11T07:45:53.855Z,15.63
2023-01-11T07:48:26.882Z,15.57
2023-01-11T07:50:55.780Z,15.47
2023-01-11T07:53:26.514Z,10.43
2023-01-11T07:55:56.608Z,5.27
2023-01-11T07:58:25.464Z,4.10
2023-01-11T08:00:53.555Z,3.73
2023-01-11T08:03:23.056Z,3.63
2023-01-11T08:05:52.531Z,3.80
2023-01-11T08:08:20.704Z,3.80
2023-01-11T08:11:09.114Z,4.20
2023-01-11T08:13:54.637Z,4.03
2023-01-11T08:16:22.871Z,2.90
2023-01-11T08:18:52.415Z,3.70
2023-01-11T08:21:21.296Z,4.03
2023-01-11T08:23:49.394Z,3.27
2023-01-11T08:26:17.996Z,4.37
2023-01-11T08:28:46.954Z,4.00
2023-01-11T08:31:15.168Z,3.60
2023-01-11T08:33:43.272Z,4.00
2023-01-11T08:36:13.895Z,3.60
2023-01-11T08:38:42.008Z,4.83
2023-01-11T08:41:11.658Z,4.53
2023-01-11T08:43:40.095Z,3.50
2023-01-11T08:46:08.424Z,3.93
2023-01-11T08:48:37.010Z,4.63
2023-01-11T08:51:05.336Z,5.23
2023-01-11T08:53:34.808Z,5.90
2023-01-11T08:56:02.973Z,5.47
2023-01-11T08:58:31.287Z,6.03
2023-01-11T09:01:00.133Z,5.47
2023-01-11T09:03:28.653Z,6.83
2023-01-11T09:05:57.487Z,7.27
2023-01-11T09:08:26.583Z,7.27
2023-01-11T09:10:59.650Z,6.67
2023-01-11T09:13:28.174Z,6.90
2023-01-11T09:15:57.412Z,7.77
2023-01-11T09:18:26.878Z,7.43
2023-01-11T09:20:55.331Z,9.70
2023-01-11T09:23:23.437Z,9.00
2023-01-11T09:25:51.605Z,9.80
2023-01-11T09:28:21.279Z,10.17
2023-01-11T09:30:49.521Z,10.87
2023-01-11T09:33:17.551Z,10.73
2023-01-11T09:35:47.014Z,12.30
2023-01-11T09:38:15.136Z,12.57
2023-01-11T09:40:52.703Z,13.93
2023-01-11T09:43:27.290Z,13.87
2023-01-11T09:45:58.663Z,14.17
2023-01-11T09:48:35.183Z,16.37
2023-01-11T09:51:05.007Z,15.23
2023-01-11T09:53:38.165Z,18.20
2023-01-11T09:56:12.725Z,17.07
2023-01-11T09:58:59.509Z,16.53
2023-01-11T10:01:37.817Z,16.13
2023-01-11T10:04:40.992Z,14.03
2023-01-11T10:07:28.125Z,15.47
2023-01-11T10:18:26.728Z,14.60
2023-01-11T10:22:01.481Z,14.30
2023-01-11T10:24:35.212Z,14.47
2023-01-11T10:27:09.670Z,13.63
2023-01-11T10:29:57.538Z,14.17
2023-01-11T10:32:45.774Z,13.10
2023-01-11T10:35:33.239Z,14.17
2023-01-11T10:38:22.071Z,14.07
2023-01-11T10:41:11.925Z,14.93
2023-01-11T10:43:44.451Z,14.93
2023-01-11T10:46:16.571Z,14.33
2023-01-11T10:48:47.463Z,13.70
2023-01-11T10:51:27.209Z,14.17
2023-01-11T10:54:02.621Z,12.97
2023-01-11T10:57:01.909Z,13.07
2023-01-11T10:59:56.229Z,13.10
2023-01-11T11:02:44.081Z,12.40
2023-01-11T11:05:24.950Z,11.90
2023-01-11T11:07:58.577Z,10.33
2023-01-11T11:10:33.875Z,11.33
2023-01-11T11:13:13.206Z,10.83
2023-01-11T11:15:50.484Z,9.30
2023-01-11T11:18:18.591Z,10.27
2023-01-11T11:20:48.109Z,9.93
2023-01-11T11:23:19.131Z,9.20
2023-01-11T11:25:50.474Z,8.40
2023-01-11T11:28:30.057Z,8.40
2023-01-11T11:31:00.123Z,8.50
2023-01-11T11:33:34.963Z,9.00
2023-01-11T11:36:06.571Z,8.50
2023-01-11T11:38:37.046Z,7.83
2023-01-11T11:41:08.230Z,8.50
2023-01-11T11:43:37.364Z,7.63
2023-01-11T11:46:20.559Z,7.90
2023-01-11T11:49:12.901Z,7.60
2023-01-11T11:51:43.815Z,7.80
2023-01-11T11:54:21.598Z,7.77
2023-01-11T11:56:50.677Z,7.90
2023-01-11T11:59:21.916Z,7.60
2023-01-11T12:01:56.754Z,6.43
2023-01-11T12:04:36.736Z,7.33
2023-01-11T12:07:16.024Z,6.43
2023-01-11T12:09:48.596Z,8.03
2023-01-11T12:12:19.482Z,6.20
2023-01-11T12:15:07.681Z,6.10
2023-01-11T12:17:36.281Z,5.90
2023-01-11T12:20:25.013Z,5.10
2023-01-11T12:23:14.230Z,5.63
2023-01-11T12:25:54.440Z,4.60
2023-01-11T12:28:32.954Z,4.60
2023-01-11T12:31:12.050Z,4.83
2023-01-11T12:33:49.219Z,4.73
2023-01-11T12:36:27.953Z,3.90
2023-01-11T12:39:05.125Z,4.60
2023-01-11T12:41:52.036Z,3.47
2023-01-11T12:44:39.804Z,4.80
2023-01-11T12:47:26.448Z,4.50
2023-01-11T12:50:01.735Z,4.40
2023-01-11T12:52:44.410Z,4.23
2023-01-11T12:55:38.795Z,4.30
2023-01-11T12:58:14.776Z,4.43
2023-01-11T13:01:00.261Z,3.87
2023-01-11T13:03:46.277Z,3.83
2023-01-11T13:06:18.240Z,4.47
2023-01-11T13:08:57.428Z,4.03
2023-01-11T13:11:40.142Z,4.47
2023-01-11T13:14:43.316Z,4.10
2023-01-11T13:17:21.756Z,4.93
2023-01-11T13:19:57.761Z,4.40
2023-01-11T13:22:31.206Z,3.37
2023-01-11T13:25:02.727Z,4.40
2023-01-11T13:27:32.433Z,4.73
2023-01-11T13:30:03.026Z,4.77
2023-01-11T13:32:36.435Z,4.73
2023-01-11T13:35:09.922Z,4.13
2023-01-11T13:37:42.543Z,4.43
2023-01-11T13:40:19.648Z,3.63
2023-01-11T13:42:52.073Z,4.20
2023-01-11T13:45:25.083Z,4.37
2023-01-11T13:47:56.006Z,4.13
2023-01-11T13:50:29.054Z,4.80
2023-01-11T13:53:04.092Z,4.30
2023-01-11T13:55:38.057Z,4.53
2023-01-11T13:58:16.430Z,4.70
2023-01-11T14:00:48.775Z,4.40
2023-01-11T14:03:26.733Z,4.83
2023-01-11T14:06:13.106Z,4.87
2023-01-11T14:09:10.543Z,5.47
2023-01-11T14:11:48.494Z,5.60
2023-01-11T14:14:37.687Z,5.10
2023-01-11T14:17:22.012Z,5.30
2023-01-11T14:19:58.152Z,6.50
2023-01-11T14:22:35.351Z,5.73
2023-01-11T14:25:08.019Z,4.80
2023-01-11T14:27:59.853Z,5.00
2023-01-11T14:31:10.685Z,5.17
2023-01-11T14:34:05.273Z,5.37
2023-01-11T14:37:13.105Z,4.80
2023-01-11T14:40:12.229Z,5.00
2023-01-11T14:43:14.752Z,4.73
2023-01-11T14:45:57.572Z,3.70
2023-01-11T14:48:31.495Z,3.97
2023-01-11T14:51:30.707Z,4.27
2023-01-11T14:54:07.507Z,4.10
2023-01-11T14:56:37.989Z,4.50
2023-01-11T14:59:07.587Z,4.43
2023-01-11T15:02:11.947Z,3.97
2023-01-11T15:05:07.136Z,3.77
2023-01-11T15:07:39.357Z,4.13
2023-01-11T15:10:41.864Z,4.97
2023-01-11T15:13:15.922Z,3.90
2023-01-11T15:16:01.589Z,4.50
2023-01-11T15:18:30.803Z,5.03
2023-01-11T15:21:04.957Z,5.70
2023-01-11T15:23:38.035Z,5.47
2023-01-11T15:26:09.434Z,5.33
2023-01-11T15:28:46.057Z,5.40
2023-01-11T15:31:34.360Z,5.60
2023-01-11T15:34:05.742Z,4.50
2023-01-11T15:37:10.303Z,5.30
2023-01-11T15:39:46.018Z,6.00
2023-01-11T15:42:53.691Z,5.13
2023-01-11T15:46:04.577Z,5.23
2023-01-11T15:48:44.722Z,4.75
2023-01-11T15:51:36.435Z,4.90
2023-01-11T15:54:31.225Z,5.20
2023-01-11T15:57:31.053Z,5.03
2023-01-11T16:00:49.313Z,5.10
2023-01-11T16:03:49.950Z,4.57
2023-01-11T16:06:29.085Z,5.57
2023-01-11T16:09:06.546Z,5.30
2023-01-11T16:12:14.039Z,5.50
2023-01-11T16:15:10.209Z,5.93
2023-01-11T16:17:41.892Z,5.43
2023-01-11T16:20:27.866Z,5.83
2023-01-11T16:22:58.968Z,7.13
2023-01-11T16:25:30.948Z,6.47
2023-01-11T16:28:00.825Z,6.30
2023-01-11T16:30:31.100Z,6.10
2023-01-11T16:33:15.488Z,6.37
2023-01-11T16:35:43.700Z,7.43
2023-01-11T16:38:18.052Z,7.10
2023-01-11T16:40:50.896Z,7.60
2023-01-11T16:43:23.356Z,7.90
2023-01-11T16:45:55.200Z,7.70
2023-01-11T16:48:24.699Z,7.97
2023-01-11T16:51:01.662Z,7.80
2023-01-11T16:53:31.535Z,7.33
2023-01-11T16:56:05.383Z,7.00
2023-01-11T16:58:35.167Z,7.50
2023-01-11T17:01:06.603Z,7.30
2023-01-11T17:03:36.364Z,7.63
2023-01-11T17:06:21.589Z,7.93
2023-01-11T17:08:52.239Z,7.93
2023-01-11T17:11:39.411Z,6.43
2023-01-11T17:14:33.708Z,6.80
2023-01-11T17:17:05.496Z,7.77
2023-01-11T17:19:36.188Z,7.20
2023-01-11T17:22:07.351Z,7.17
2023-01-11T17:24:38.303Z,6.77
2023-01-11T17:27:09.052Z,7.40
2023-01-11T17:29:40.533Z,7.10
2023-01-11T17:32:18.889Z,7.53
2023-01-11T17:34:47.711Z,6.97
2023-01-11T17:37:18.236Z,6.73
2023-01-11T17:39:49.559Z,6.60
2023-01-11T17:42:36.404Z,7.10
2023-01-11T17:45:23.301Z,7.43
2023-01-11T17:47:55.344Z,6.60
2023-01-11T17:50:29.851Z,6.20
2023-01-11T17:53:07.697Z,6.27
2023-01-11T17:55:35.992Z,6.90
2023-01-11T17:58:18.076Z,7.03
2023-01-11T18:01:04.489Z,6.07
2023-01-11T18:03:41.740Z,5.60
2023-01-11T18:06:19.529Z,6.30
2023-01-11T18:08:49.529Z,6.07
2023-01-11T18:11:25.162Z,5.60
2023-01-11T18:13:54.376Z,6.47
2023-01-11T18:16:23.486Z,6.10
2023-01-11T18:18:54.423Z,5.13
2023-01-11T18:21:51.253Z,5.63
2023-01-11T18:24:42.880Z,5.60
2023-01-11T18:27:25.107Z,5.03
2023-01-11T18:29:54.212Z,5.47
2023-01-11T18:32:22.720Z,5.70
2023-01-11T18:34:55.278Z,5.53
2023-01-11T18:37:23.427Z,5.40
2023-01-11T18:39:52.598Z,5.43
2023-01-11T18:42:25.737Z,5.83
2023-01-11T18:44:54.074Z,5.97
2023-01-11T18:47:24.195Z,5.53
2023-01-11T18:49:56.663Z,6.50
2023-01-11T18:52:27.589Z,5.30
2023-01-11T18:54:56.072Z,6.13
2023-01-11T18:57:24.921Z,6.37
2023-01-11T18:59:53.602Z,5.33
2023-01-11T19:02:24.649Z,4.90
2023-01-11T19:04:56.703Z,5.60
2023-01-11T19:07:26.853Z,5.73
2023-01-11T19:09:55.845Z,6.23
2023-01-11T19:12:26.379Z,6.10
2023-01-11T19:14:54.537Z,5.80
2023-01-11T19:17:22.672Z,5.77
2023-01-11T19:19:51.117Z,6.40
2023-01-11T19:22:23.386Z,6.40
2023-01-11T19:24:54.627Z,6.70
2023-01-11T19:27:23.210Z,5.90
2023-01-11T19:29:52.636Z,6.40
2023-01-11T19:32:25.004Z,6.70
2023-01-11T19:34:53.637Z,6.30
2023-01-11T19:37:23.038Z,6.33
2023-01-11T19:39:51.274Z,5.87
2023-01-11T19:42:19.671Z,7.27
2023-01-11T19:44:47.866Z,6.90
2023-01-11T19:47:16.402Z,5.70
2023-01-11T19:49:45.525Z,6.60
2023-01-11T19:52:18.932Z,5.70
2023-01-11T19:54:49.143Z,5.80
2023-01-11T19:57:20.333Z,7.07
2023-01-11T19:59:49.725Z,6.80
2023-01-11T20:02:19.932Z,6.33
2023-01-11T20:04:48.159Z,6.07
2023-01-11T20:07:16.680Z,5.67
2023-01-11T20:09:44.821Z,5.53
2023-01-11T20:12:16.178Z,5.60
2023-01-11T20:14:46.238Z,6.03
2023-01-11T20:17:15.754Z,6.17
2023-01-11T20:19:44.248Z,6.93
2023-01-11T20:22:13.101Z,5.10
2023-01-11T20:24:41.125Z,5.60
2023-01-11T20:27:09.365Z,5.53
2023-01-11T20:29:38.921Z,5.93
2023-01-11T20:32:31.188Z,5.63
2023-01-11T20:34:55.352Z,4.73
2023-01-11T20:37:23.411Z,5.50
2023-01-11T20:39:51.531Z,5.30
2023-01-11T20:42:19.680Z,5.47
2023-01-11T20:44:49.161Z,6.70
2023-01-11T20:47:17.266Z,6.27
2023-01-11T20:49:45.528Z,6.10
2023-01-11T20:52:13.836Z,5.80
2023-01-11T20:54:43.192Z,5.93
2023-01-11T20:57:14.923Z,5.47
2023-01-11T20:59:43.436Z,5.43
2023-01-11T21:02:15.550Z,5.83
2023-01-11T21:04:43.622Z,5.90
2023-01-11T21:07:11.631Z,5.97
2023-01-11T21:09:39.785Z,5.17
2023-01-11T21:12:09.627Z,5.43
2023-01-11T21:14:37.814Z,5.70
2023-01-11T21:17:05.940Z,5.20
2023-01-11T21:19:35.366Z,5.47
2023-01-11T21:22:03.526Z,4.40
2023-01-11T21:24:31.824Z,4.83
2023-01-11T21:26:59.990Z,5.17
2023-01-11T21:29:28.085Z,4.87
2023-01-11T21:31:56.263Z,4.63
2023-01-11T21:34:24.622Z,5.10
2023-01-11T21:36:54.167Z,4.07
2023-01-11T21:39:22.317Z,5.63
2023-01-11T21:41:55.970Z,5.03
2023-01-11T21:44:27.459Z,4.30
2023-01-11T21:46:56.225Z,4.50
2023-01-11T21:49:24.671Z,4.53
2023-01-11T21:51:54.543Z,5.17
2023-01-11T21:54:22.957Z,5.30
2023-01-11T21:56:51.367Z,4.17
2023-01-11T21:59:20.378Z,4.20
2023-01-11T22:01:49.820Z,4.10
2023-01-11T22:04:19.439Z,4.30
2023-01-11T22:06:51.437Z,5.07
2023-01-11T22:09:22.182Z,4.50
2023-01-11T22:11:51.033Z,4.10
2023-01-11T22:14:20.101Z,4.13
2023-01-11T22:16:48.202Z,3.83
2023-01-11T22:19:16.431Z,3.20
2023-01-11T22:21:44.590Z,4.07
2023-01-11T22:24:13.213Z,4.10
2023-01-11T22:26:42.863Z,3.50
2023-01-11T22:29:15.913Z,4.30
2023-01-11T22:31:47.063Z,4.00
2023-01-11T22:34:16.371Z,4.17
2023-01-11T22:36:45.574Z,4.10
2023-01-11T22:39:15.208Z,4.80
2023-01-11T22:41:45.876Z,4.70
2023-01-11T22:44:14.711Z,4.47
2023-01-11T22:46:43.497Z,4.60
2023-01-11T22:49:12.453Z,4.70
2023-01-11T22:51:41.502Z,3.60
2023-01-11T22:54:10.101Z,3.90
2023-01-11T22:56:38.373Z,4.10
2023-01-11T22:59:08.440Z,3.60
2023-01-11T23:01:38.741Z,3.80
2023-01-11T23:04:08.245Z,3.67
2023-01-11T23:06:38.145Z,3.77
2023-01-11T23:09:08.413Z,3.53
2023-01-11T23:11:55.791Z,4.43
2023-01-11T23:14:29.143Z,3.20
2023-01-11T23:16:58.240Z,3.40
2023-01-11T23:19:26.383Z,3.40
2023-01-11T23:21:54.752Z,3.90
2023-01-11T23:24:22.861Z,3.50
2023-01-11T23:26:51.535Z,4.10
2023-01-11T23:29:19.793Z,3.50
2023-01-11T23:31:49.367Z,3.93
2023-01-11T23:34:17.687Z,3.50
2023-01-11T23:36:45.935Z,3.47
2023-01-11T23:39:16.548Z,3.87
2023-01-11T23:42:02.581Z,3.67
2023-01-11T23:44:31.109Z,3.57
2023-01-11T23:47:18.023Z,3.10
2023-01-11T23:49:46.210Z,4.10
2023-01-11T23:52:14.254Z,3.30
2023-01-11T23:54:43.338Z,2.90
2023-01-11T23:57:12.341Z,3.83
2023-01-11T23:59:40.750Z,3.53
